sensor_id;sensor_type;location;lat;lon;timestamp;pressure;altitude;pressure_sealevel;temperature;humidity
18819;BME280;9537;45.594;9.294;2022-10-31T00:00:33;100315.06;;;13.45;89.23
18819;BME280;9537;45.594;9.294;2022-10-31T00:01:37;100308.59;;;13.48;88.70
18819;BME280;9537;45.594;9.294;2022-10-31T00:02:40;100317.72;;;13.45;89.20
18819;BME280;9537;45.594;9.294;2022-10-31T00:03:42;100305.44;;;13.44;88.68
18819;BME280;9537;45.594;9.294;2022-10-31T00:04:43;100305.63;;;13.43;88.54
18819;BME280;9537;45.594;9.294;2022-10-31T00:05:47;100313.41;;;13.44;88.66
18819;BME280;9537;45.594;9.294;2022-10-31T00:06:48;100311.28;;;13.40;88.55
18819;BME280;9537;45.594;9.294;2022-10-31T00:07:52;100307.97;;;13.38;88.22
18819;BME280;9537;45.594;9.294;2022-10-31T00:08:54;100314.66;;;13.34;88.49
18819;BME280;9537;45.594;9.294;2022-10-31T00:09:56;100309.50;;;13.32;88.55
18819;BME280;9537;45.594;9.294;2022-10-31T00:10:57;100308.69;;;13.32;89.10
18819;BME280;9537;45.594;9.294;2022-10-31T00:11:59;100308.22;;;13.28;88.68
18819;BME280;9537;45.594;9.294;2022-10-31T00:13:00;100312.84;;;13.26;88.48
18819;BME280;9537;45.594;9.294;2022-10-31T00:14:03;100311.22;;;13.17;89.05
18819;BME280;9537;45.594;9.294;2022-10-31T00:15:04;100323.47;;;13.18;88.74
18819;BME280;9537;45.594;9.294;2022-10-31T00:16:13;100313.53;;;13.20;88.61
18819;BME280;9537;45.594;9.294;2022-10-31T00:17:14;100317.81;;;13.21;88.52
18819;BME280;9537;45.594;9.294;2022-10-31T00:18:18;100314.34;;;13.20;88.52
18819;BME280;9537;45.594;9.294;2022-10-31T00:19:19;100315.63;;;13.24;88.26
18819;BME280;9537;45.594;9.294;2022-10-31T00:20:21;100316.81;;;13.22;88.76
18819;BME280;9537;45.594;9.294;2022-10-31T00:21:22;100321.94;;;13.23;88.49
18819;BME280;9537;45.594;9.294;2022-10-31T00:22:24;100323.59;;;13.24;88.75
18819;BME280;9537;45.594;9.294;2022-10-31T00:23:26;100315.81;;;13.23;88.33
18819;BME280;9537;45.594;9.294;2022-10-31T00:24:28;100318.81;;;13.28;88.30
18819;BME280;9537;45.594;9.294;2022-10-31T00:25:33;100321.63;;;13.26;88.46
18819;BME280;9537;45.594;9.294;2022-10-31T00:26:36;100314.50;;;13.27;88.21
18819;BME280;9537;45.594;9.294;2022-10-31T00:27:37;100317.00;;;13.28;88.15
18819;BME280;9537;45.594;9.294;2022-10-31T00:28:39;100321.63;;;13.26;87.93
18819;BME280;9537;45.594;9.294;2022-10-31T00:29:40;100314.00;;;13.23;88.30
18819;BME280;9537;45.594;9.294;2022-10-31T00:30:42;100321.63;;;13.18;88.77
18819;BME280;9537;45.594;9.294;2022-10-31T00:31:43;100314.03;;;13.15;89.29
18819;BME280;9537;45.594;9.294;2022-10-31T00:32:45;100316.34;;;13.18;89.22
18819;BME280;9537;45.594;9.294;2022-10-31T00:33:48;100320.66;;;13.19;88.62
18819;BME280;9537;45.594;9.294;2022-10-31T00:34:50;100311.56;;;13.14;89.31
18819;BME280;9537;45.594;9.294;2022-10-31T00:35:51;100320.81;;;13.18;89.44
18819;BME280;9537;45.594;9.294;2022-10-31T00:36:53;100319.19;;;13.17;89.28
18819;BME280;9537;45.594;9.294;2022-10-31T00:37:54;100321.00;;;13.16;89.19
18819;BME280;9537;45.594;9.294;2022-10-31T00:38:58;100313.69;;;13.18;88.98
18819;BME280;9537;45.594;9.294;2022-10-31T00:39:59;100313.22;;;13.15;88.54
18819;BME280;9537;45.594;9.294;2022-10-31T00:41:01;100319.53;;;13.14;88.79
18819;BME280;9537;45.594;9.294;2022-10-31T00:42:02;100311.91;;;13.11;88.57
18819;BME280;9537;45.594;9.294;2022-10-31T00:43:04;100311.25;;;13.08;88.80
18819;BME280;9537;45.594;9.294;2022-10-31T00:44:05;100314.25;;;13.05;88.60
18819;BME280;9537;45.594;9.294;2022-10-31T00:45:09;100314.41;;;13.04;89.04
18819;BME280;9537;45.594;9.294;2022-10-31T00:46:10;100308.28;;;13.03;88.51
18819;BME280;9537;45.594;9.294;2022-10-31T00:47:12;100303.81;;;13.04;88.73
18819;BME280;9537;45.594;9.294;2022-10-31T00:48:13;100304.97;;;13.01;88.84
18819;BME280;9537;45.594;9.294;2022-10-31T00:49:17;100308.28;;;13.03;88.70
18819;BME280;9537;45.594;9.294;2022-10-31T00:50:19;100306.16;;;12.99;88.51
18819;BME280;9537;45.594;9.294;2022-10-31T00:51:19;100310.00;;;12.96;88.79
18819;BME280;9537;45.594;9.294;2022-10-31T00:52:22;100311.63;;;12.97;88.65
18819;BME280;9537;45.594;9.294;2022-10-31T00:53:23;100310.81;;;12.97;88.63
18819;BME280;9537;45.594;9.294;2022-10-31T00:54:25;100314.44;;;12.96;88.55
18819;BME280;9537;45.594;9.294;2022-10-31T00:55:26;100313.63;;;12.95;88.68
18819;BME280;9537;45.594;9.294;2022-10-31T00:56:28;100313.16;;;12.92;88.61
18819;BME280;9537;45.594;9.294;2022-10-31T00:57:29;100310.00;;;12.96;88.47
18819;BME280;9537;45.594;9.294;2022-10-31T00:58:31;100314.63;;;12.94;89.11
18819;BME280;9537;45.594;9.294;2022-10-31T00:59:32;100305.84;;;12.94;89.31
18819;BME280;9537;45.594;9.294;2022-10-31T01:00:34;100305.50;;;12.97;88.81
18819;BME280;9537;45.594;9.294;2022-10-31T01:01:35;100307.97;;;12.98;89.18
18819;BME280;9537;45.594;9.294;2022-10-31T01:02:37;100306.34;;;12.97;88.78
18819;BME280;9537;45.594;9.294;2022-10-31T01:03:39;100310.00;;;12.96;88.86
18819;BME280;9537;45.594;9.294;2022-10-31T01:04:42;100303.69;;;12.97;88.81
18819;BME280;9537;45.594;9.294;2022-10-31T01:05:43;100311.28;;;13.00;89.04
18819;BME280;9537;45.594;9.294;2022-10-31T01:06:45;100307.63;;;13.01;88.38
18819;BME280;9537;45.594;9.294;2022-10-31T01:07:46;100310.28;;;13.01;88.36
18819;BME280;9537;45.594;9.294;2022-10-31T01:08:48;100311.63;;;12.97;88.00
18819;BME280;9537;45.594;9.294;2022-10-31T01:09:49;100309.34;;;12.94;88.45
18819;BME280;9537;45.594;9.294;2022-10-31T01:11:02;100310.16;;;12.95;88.25
18819;BME280;9537;45.594;9.294;2022-10-31T01:12:03;100307.03;;;12.91;88.28
18819;BME280;9537;45.594;9.294;2022-10-31T01:13:05;100307.72;;;12.85;88.24
18819;BME280;9537;45.594;9.294;2022-10-31T01:14:06;100307.06;;;12.83;87.79
18819;BME280;9537;45.594;9.294;2022-10-31T01:15:09;100302.56;;;12.83;87.99
18819;BME280;9537;45.594;9.294;2022-10-31T01:16:13;100304.75;;;12.80;87.97
18819;BME280;9537;45.594;9.294;2022-10-31T01:17:15;100311.69;;;12.81;88.15
18819;BME280;9537;45.594;9.294;2022-10-31T01:18:16;100300.75;;;12.84;88.13
18819;BME280;9537;45.594;9.294;2022-10-31T01:19:18;100307.06;;;12.83;87.84
18819;BME280;9537;45.594;9.294;2022-10-31T01:20:21;100302.78;;;12.74;88.66
18819;BME280;9537;45.594;9.294;2022-10-31T01:21:25;100299.13;;;12.75;88.36
18819;BME280;9537;45.594;9.294;2022-10-31T01:22:27;100301.78;;;12.75;88.48
18819;BME280;9537;45.594;9.294;2022-10-31T01:23:29;100301.78;;;12.75;88.52
18819;BME280;9537;45.594;9.294;2022-10-31T01:24:30;100300.94;;;12.74;88.23
18819;BME280;9537;45.594;9.294;2022-10-31T01:25:32;100303.75;;;12.73;87.95
18819;BME280;9537;45.594;9.294;2022-10-31T01:26:33;100299.47;;;12.72;88.08
18819;BME280;9537;45.594;9.294;2022-10-31T01:27:35;100299.13;;;12.75;88.32
18819;BME280;9537;45.594;9.294;2022-10-31T01:28:40;100306.25;;;12.74;88.23
18819;BME280;9537;45.594;9.294;2022-10-31T01:29:44;100296.81;;;12.72;88.79
18819;BME280;9537;45.594;9.294;2022-10-31T01:30:45;100306.41;;;12.73;88.95
18819;BME280;9537;45.594;9.294;2022-10-31T01:31:47;100300.47;;;12.71;88.60
18819;BME280;9537;45.594;9.294;2022-10-31T01:32:48;100304.59;;;12.73;88.60
18819;BME280;9537;45.594;9.294;2022-10-31T01:33:51;100298.31;;;12.74;88.47
18819;BME280;9537;45.594;9.294;2022-10-31T01:34:52;100302.78;;;12.74;88.14
18819;BME280;9537;45.594;9.294;2022-10-31T01:35:56;100304.94;;;12.70;88.38
18819;BME280;9537;45.594;9.294;2022-10-31T01:36:57;100297.31;;;12.67;88.59
18819;BME280;9537;45.594;9.294;2022-10-31T01:37:59;100304.44;;;12.67;88.64
18819;BME280;9537;45.594;9.294;2022-10-31T01:39:03;100294.66;;;12.67;88.59
18819;BME280;9537;45.594;9.294;2022-10-31T01:40:06;100299.63;;;12.70;88.39
18819;BME280;9537;45.594;9.294;2022-10-31T01:41:08;100302.94;;;12.72;88.41
18819;BME280;9537;45.594;9.294;2022-10-31T01:42:17;100301.13;;;12.65;88.47
18819;BME280;9537;45.594;9.294;2022-10-31T01:43:19;100298.66;;;12.63;88.51
18819;BME280;9537;45.594;9.294;2022-10-31T01:44:58;100297.50;;;12.66;88.32
18819;BME280;9537;45.594;9.294;2022-10-31T01:46:01;100298.31;;;12.66;87.98
18819;BME280;9537;45.594;9.294;2022-10-31T01:47:05;100296.84;;;12.63;88.29
18819;BME280;9537;45.594;9.294;2022-10-31T01:48:12;100295.34;;;12.61;88.38
18819;BME280;9537;45.594;9.294;2022-10-31T01:49:17;100296.19;;;12.61;88.06
18819;BME280;9537;45.594;9.294;2022-10-31T01:50:27;100293.53;;;12.61;88.38
18819;BME280;9537;45.594;9.294;2022-10-31T01:51:36;100290.25;;;12.59;88.05
18819;BME280;9537;45.594;9.294;2022-10-31T01:52:41;100294.69;;;12.59;88.35
18819;BME280;9537;45.594;9.294;2022-10-31T01:53:44;100299.34;;;12.57;88.44
18819;BME280;9537;45.594;9.294;2022-10-31T01:54:48;100294.53;;;12.60;88.53
18819;BME280;9537;45.594;9.294;2022-10-31T01:55:52;100293.88;;;12.58;88.66
18819;BME280;9537;45.594;9.294;2022-10-31T01:56:56;100293.88;;;12.58;88.67
18819;BME280;9537;45.594;9.294;2022-10-31T01:58:03;100286.59;;;12.60;88.56
18819;BME280;9537;45.594;9.294;2022-10-31T01:59:08;100288.41;;;12.60;88.63
18819;BME280;9537;45.594;9.294;2022-10-31T02:00:12;100290.25;;;12.59;88.33
18819;BME280;9537;45.594;9.294;2022-10-31T02:01:16;100286.75;;;12.59;87.74
18819;BME280;9537;45.594;9.294;2022-10-31T02:02:18;100289.56;;;12.57;87.72
18819;BME280;9537;45.594;9.294;2022-10-31T02:03:22;100286.75;;;12.59;87.85
18819;BME280;9537;45.594;9.294;2022-10-31T02:04:24;100294.22;;;12.55;87.48
18819;BME280;9537;45.594;9.294;2022-10-31T02:05:28;100288.28;;;12.53;87.30
18819;BME280;9537;45.594;9.294;2022-10-31T02:06:37;100286.94;;;12.49;87.68
18819;BME280;9537;45.594;9.294;2022-10-31T02:07:44;100290.06;;;12.53;87.56
18819;BME280;9537;45.594;9.294;2022-10-31T02:08:47;100284.97;;;12.51;87.78
18819;BME280;9537;45.594;9.294;2022-10-31T02:09:51;100288.59;;;12.50;87.75
18819;BME280;9537;45.594;9.294;2022-10-31T02:10:54;100286.94;;;12.49;87.51
18819;BME280;9537;45.594;9.294;2022-10-31T02:11:58;100287.94;;;12.48;88.00
18819;BME280;9537;45.594;9.294;2022-10-31T02:13:03;100284.47;;;12.48;88.06
18819;BME280;9537;45.594;9.294;2022-10-31T02:14:05;100283.16;;;12.44;88.33
18819;BME280;9537;45.594;9.294;2022-10-31T02:15:08;100279.84;;;12.42;88.44
18819;BME280;9537;45.594;9.294;2022-10-31T02:16:11;100282.47;;;12.42;88.55
18819;BME280;9537;45.594;9.294;2022-10-31T02:17:12;100279.34;;;12.38;88.79
18819;BME280;9537;45.594;9.294;2022-10-31T02:18:15;100279.00;;;12.41;88.52
18819;BME280;9537;45.594;9.294;2022-10-31T02:19:19;100273.56;;;12.43;88.49
18819;BME280;9537;45.594;9.294;2022-10-31T02:20:24;100282.31;;;12.43;88.59
18819;BME280;9537;45.594;9.294;2022-10-31T02:21:32;100281.50;;;12.43;88.31
18819;BME280;9537;45.594;9.294;2022-10-31T02:22:41;100278.66;;;12.44;88.10
18819;BME280;9537;45.594;9.294;2022-10-31T02:25:50;100281.66;;;12.41;87.97
18819;BME280;9537;45.594;9.294;2022-10-31T02:27:16;100282.00;;;12.38;87.44
18819;BME280;9537;45.594;9.294;2022-10-31T02:28:36;100275.22;;;12.35;87.97
18819;BME280;9537;45.594;9.294;2022-10-31T02:30:05;100280.69;;;12.34;88.30
18819;BME280;9537;45.594;9.294;2022-10-31T02:31:19;100279.53;;;12.36;88.16
18819;BME280;9537;45.594;9.294;2022-10-31T02:32:26;100275.22;;;12.35;87.82
18819;BME280;9537;45.594;9.294;2022-10-31T02:33:34;100269.09;;;12.35;88.24
18819;BME280;9537;45.594;9.294;2022-10-31T02:34:45;100273.56;;;12.34;88.44
18819;BME280;9537;45.594;9.294;2022-10-31T02:35:57;100270.25;;;12.32;88.49
18819;BME280;9537;45.594;9.294;2022-10-31T02:37:06;100268.78;;;12.30;88.34
18819;BME280;9537;45.594;9.294;2022-10-31T02:38:23;100265.97;;;12.31;88.78
18819;BME280;9537;45.594;9.294;2022-10-31T02:39:30;100267.47;;;12.34;88.62
18819;BME280;9537;45.594;9.294;2022-10-31T02:40:42;100275.22;;;12.35;88.45
18819;BME280;9537;45.594;9.294;2022-10-31T02:41:51;100266.09;;;12.38;88.15
18819;BME280;9537;45.594;9.294;2022-10-31T02:43:00;100274.88;;;12.38;88.12
18819;BME280;9537;45.594;9.294;2022-10-31T02:44:08;100274.06;;;12.38;87.90
18819;BME280;9537;45.594;9.294;2022-10-31T02:45:13;100271.25;;;12.39;88.20
18819;BME280;9537;45.594;9.294;2022-10-31T02:46:21;100274.88;;;12.38;87.83
18819;BME280;9537;45.594;9.294;2022-10-31T02:47:28;100267.47;;;12.34;88.09
18819;BME280;9537;45.594;9.294;2022-10-31T02:48:31;100271.94;;;12.33;88.21
18819;BME280;9537;45.594;9.294;2022-10-31T02:49:40;100271.25;;;12.31;88.23
18819;BME280;9537;45.594;9.294;2022-10-31T02:50:49;100270.25;;;12.32;88.24
18819;BME280;9537;45.594;9.294;2022-10-31T02:51:54;100271.75;;;12.35;88.24
18819;BME280;9537;45.594;9.294;2022-10-31T02:52:55;100270.09;;;12.34;88.03
18819;BME280;9537;45.594;9.294;2022-10-31T02:53:57;100269.91;;;12.35;88.15
18819;BME280;9537;45.594;9.294;2022-10-31T02:54:58;100271.75;;;12.35;88.40
18819;BME280;9537;45.594;9.294;2022-10-31T02:56:04;100276.69;;;12.38;88.21
18819;BME280;9537;45.594;9.294;2022-10-31T02:57:07;100270.44;;;12.39;88.08
18819;BME280;9537;45.594;9.294;2022-10-31T02:58:12;100268.75;;;12.38;87.88
18819;BME280;9537;45.594;9.294;2022-10-31T02:59:15;100272.41;;;12.37;88.00
18819;BME280;9537;45.594;9.294;2022-10-31T03:00:17;100267.94;;;12.37;87.94
18819;BME280;9537;45.594;9.294;2022-10-31T03:01:44;100271.41;;;12.38;88.09
18819;BME280;9537;45.594;9.294;2022-10-31T03:02:58;100269.75;;;12.37;87.72
18819;BME280;9537;45.594;9.294;2022-10-31T03:04:21;100267.13;;;12.37;88.06
18819;BME280;9537;45.594;9.294;2022-10-31T03:05:36;100267.94;;;12.37;87.82
18819;BME280;9537;45.594;9.294;2022-10-31T03:06:45;100261.81;;;12.37;87.97
18819;BME280;9537;45.594;9.294;2022-10-31T03:07:57;100266.09;;;12.38;87.84
18819;BME280;9537;45.594;9.294;2022-10-31T03:09:05;100260.34;;;12.34;88.36
18819;BME280;9537;45.594;9.294;2022-10-31T03:10:17;100254.22;;;12.34;87.77
18819;BME280;9537;45.594;9.294;2022-10-31T03:11:24;100256.88;;;12.34;88.20
18819;BME280;9537;45.594;9.294;2022-10-31T03:12:37;100259.66;;;12.32;87.91
18819;BME280;9537;45.594;9.294;2022-10-31T03:13:45;100259.84;;;12.31;88.12
18819;BME280;9537;45.594;9.294;2022-10-31T03:14:51;100262.00;;;12.27;88.34
18819;BME280;9537;45.594;9.294;2022-10-31T03:15:59;100259.69;;;12.24;88.73
18819;BME280;9537;45.594;9.294;2022-10-31T03:17:06;100257.38;;;12.21;89.02
18819;BME280;9537;45.594;9.294;2022-10-31T03:18:12;100263.50;;;12.22;89.03
18819;BME280;9537;45.594;9.294;2022-10-31T03:19:18;100272.09;;;12.24;88.83
18819;BME280;9537;45.594;9.294;2022-10-31T03:20:23;100264.97;;;12.24;88.18
18819;BME280;9537;45.594;9.294;2022-10-31T03:21:29;100267.00;;;12.22;88.65
18819;BME280;9537;45.594;9.294;2022-10-31T03:22:34;100263.34;;;12.23;88.61
18819;BME280;9537;45.594;9.294;2022-10-31T03:23:39;100270.63;;;12.21;88.38
18819;BME280;9537;45.594;9.294;2022-10-31T03:24:41;100264.69;;;12.19;88.62
18819;BME280;9537;45.594;9.294;2022-10-31T03:25:46;100261.03;;;12.20;89.03
18819;BME280;9537;45.594;9.294;2022-10-31T03:26:50;100270.94;;;12.18;88.67
18819;BME280;9537;45.594;9.294;2022-10-31T03:27:54;100260.19;;;12.20;88.81
18819;BME280;9537;45.594;9.294;2022-10-31T03:28:59;100260.19;;;12.20;89.29
18819;BME280;9537;45.594;9.294;2022-10-31T03:30:05;100267.00;;;12.22;89.23
18819;BME280;9537;45.594;9.294;2022-10-31T03:31:09;100269.31;;;12.17;89.13
18819;BME280;9537;45.594;9.294;2022-10-31T03:32:16;100262.66;;;12.21;89.32
18819;BME280;9537;45.594;9.294;2022-10-31T03:33:23;100260.84;;;12.22;88.68
18819;BME280;9537;45.594;9.294;2022-10-31T03:34:29;100270.94;;;12.18;89.15
18819;BME280;9537;45.594;9.294;2022-10-31T03:35:32;100263.81;;;12.18;88.98
18819;BME280;9537;45.594;9.294;2022-10-31T03:36:38;100265.84;;;12.16;88.87
18819;BME280;9537;45.594;9.294;2022-10-31T03:37:40;100268.16;;;12.20;88.40
18819;BME280;9537;45.594;9.294;2022-10-31T03:38:45;100267.47;;;12.17;88.34
18819;BME280;9537;45.594;9.294;2022-10-31T03:39:48;100263.34;;;12.15;88.55
18819;BME280;9537;45.594;9.294;2022-10-31T03:40:52;100267.97;;;12.13;88.68
18819;BME280;9537;45.594;9.294;2022-10-31T03:41:57;100268.97;;;12.12;89.30
18819;BME280;9537;45.594;9.294;2022-10-31T03:43:05;100263.88;;;12.10;89.71
18819;BME280;9537;45.594;9.294;2022-10-31T03:44:11;100266.50;;;12.10;90.04
18819;BME280;9537;45.594;9.294;2022-10-31T03:45:18;100263.00;;;12.10;89.96
18819;BME280;9537;45.594;9.294;2022-10-31T03:46:21;100266.00;;;12.07;90.28
18819;BME280;9537;45.594;9.294;2022-10-31T03:47:26;100264.19;;;12.07;90.35
18819;BME280;9537;45.594;9.294;2022-10-31T03:48:27;100273.44;;;12.11;89.86
18819;BME280;9537;45.594;9.294;2022-10-31T03:49:30;100268.16;;;12.11;89.76
18819;BME280;9537;45.594;9.294;2022-10-31T03:50:39;100275.09;;;12.12;89.70
18819;BME280;9537;45.594;9.294;2022-10-31T03:51:47;100266.34;;;12.12;89.60
18819;BME280;9537;45.594;9.294;2022-10-31T03:52:55;100268.81;;;12.13;89.72
18819;BME280;9537;45.594;9.294;2022-10-31T03:54:03;100271.81;;;12.10;90.12
18819;BME280;9537;45.594;9.294;2022-10-31T03:55:10;100267.50;;;12.09;90.37
18819;BME280;9537;45.594;9.294;2022-10-31T03:56:19;100268.97;;;12.12;90.63
18819;BME280;9537;45.594;9.294;2022-10-31T03:57:26;100266.81;;;12.15;90.47
18819;BME280;9537;45.594;9.294;2022-10-31T03:58:33;100269.97;;;12.19;90.29
18819;BME280;9537;45.594;9.294;2022-10-31T03:59:40;100271.78;;;12.18;90.11
18819;BME280;9537;45.594;9.294;2022-10-31T04:00:44;100274.75;;;12.15;90.14
18819;BME280;9537;45.594;9.294;2022-10-31T04:01:49;100269.97;;;12.19;89.65
18819;BME280;9537;45.594;9.294;2022-10-31T04:02:55;100280.72;;;12.17;89.38
18819;BME280;9537;45.594;9.294;2022-10-31T04:04:00;100274.94;;;12.14;89.15
18819;BME280;9537;45.594;9.294;2022-10-31T04:05:02;100276.09;;;12.11;89.31
18819;BME280;9537;45.594;9.294;2022-10-31T04:06:07;100280.72;;;12.09;89.03
18819;BME280;9537;45.594;9.294;2022-10-31T04:07:09;100273.78;;;12.08;89.26
18819;BME280;9537;45.594;9.294;2022-10-31T04:08:17;100280.25;;;12.06;89.03
18819;BME280;9537;45.594;9.294;2022-10-31T04:09:20;100283.91;;;12.05;89.32
18819;BME280;9537;45.594;9.294;2022-10-31T04:10:25;100283.38;;;12.01;89.39
18819;BME280;9537;45.594;9.294;2022-10-31T04:11:29;100282.41;;;12.02;88.76
18819;BME280;9537;45.594;9.294;2022-10-31T04:12:34;100286.03;;;12.01;89.11
18819;BME280;9537;45.594;9.294;2022-10-31T04:13:37;100279.91;;;12.01;89.21
18819;BME280;9537;45.594;9.294;2022-10-31T04:14:42;100281.88;;;11.99;89.06
18819;BME280;9537;45.594;9.294;2022-10-31T04:15:45;100278.91;;;12.02;89.35
18819;BME280;9537;45.594;9.294;2022-10-31T04:16:48;100274.47;;;12.02;89.04
18819;BME280;9537;45.594;9.294;2022-10-31T04:17:50;100271.63;;;12.04;89.17
18819;BME280;9537;45.594;9.294;2022-10-31T04:18:56;100270.81;;;12.03;89.29
18819;BME280;9537;45.594;9.294;2022-10-31T04:19:59;100272.63;;;12.03;89.14
18819;BME280;9537;45.594;9.294;2022-10-31T04:21:03;100272.16;;;11.99;89.43
18819;BME280;9537;45.594;9.294;2022-10-31T04:22:04;100268.66;;;11.99;90.03
18819;BME280;9537;45.594;9.294;2022-10-31T04:23:16;100277.44;;;11.99;89.70
18819;BME280;9537;45.594;9.294;2022-10-31T04:24:19;100274.63;;;12.01;89.70
18819;BME280;9537;45.594;9.294;2022-10-31T04:25:21;100280.09;;;11.99;89.55
18819;BME280;9537;45.594;9.294;2022-10-31T04:26:22;100275.44;;;12.01;89.71
18819;BME280;9537;45.594;9.294;2022-10-31T04:27:24;100273.94;;;11.99;89.59
18819;BME280;9537;45.594;9.294;2022-10-31T04:28:25;100270.97;;;12.02;89.81
18819;BME280;9537;45.594;9.294;2022-10-31T04:29:27;100272.63;;;12.03;89.39
18819;BME280;9537;45.594;9.294;2022-10-31T04:30:30;100275.09;;;12.04;89.29
18819;BME280;9537;45.594;9.294;2022-10-31T04:31:32;100277.75;;;12.04;89.32
18819;BME280;9537;45.594;9.294;2022-10-31T04:32:33;100271.81;;;12.02;89.26
18819;BME280;9537;45.594;9.294;2022-10-31T04:33:35;100285.06;;;12.02;89.33
18819;BME280;9537;45.594;9.294;2022-10-31T04:34:38;100270.97;;;12.02;89.54
18819;BME280;9537;45.594;9.294;2022-10-31T04:35:40;100281.72;;;12.00;89.75
18819;BME280;9537;45.594;9.294;2022-10-31T04:36:41;100271.81;;;12.02;89.40
18819;BME280;9537;45.594;9.294;2022-10-31T04:37:44;100270.81;;;12.03;89.56
18819;BME280;9537;45.594;9.294;2022-10-31T04:38:45;100269.16;;;12.02;89.24
18819;BME280;9537;45.594;9.294;2022-10-31T04:39:47;100268.16;;;12.03;89.33
18819;BME280;9537;45.594;9.294;2022-10-31T04:40:48;100270.13;;;12.01;89.21
18819;BME280;9537;45.594;9.294;2022-10-31T04:41:51;100268.50;;;12.00;89.48
18819;BME280;9537;45.594;9.294;2022-10-31T04:42:52;100264.84;;;12.01;89.30
18819;BME280;9537;45.594;9.294;2022-10-31T04:43:54;100263.88;;;12.02;89.34
18819;BME280;9537;45.594;9.294;2022-10-31T04:44:55;100262.19;;;12.01;89.42
18819;BME280;9537;45.594;9.294;2022-10-31T04:45:57;100271.63;;;12.04;89.32
18819;BME280;9537;45.594;9.294;2022-10-31T04:46:58;100259.72;;;12.00;89.28
18819;BME280;9537;45.594;9.294;2022-10-31T04:48:00;100265.19;;;11.98;89.08
18819;BME280;9537;45.594;9.294;2022-10-31T04:49:02;100272.78;;;11.93;89.65
18819;BME280;9537;45.594;9.294;2022-10-31T04:50:07;100270.47;;;11.90;89.35
18819;BME280;9537;45.594;9.294;2022-10-31T04:51:08;100272.78;;;11.85;89.66
18819;BME280;9537;45.594;9.294;2022-10-31T04:52:10;100272.13;;;11.83;89.72
18819;BME280;9537;45.594;9.294;2022-10-31T04:53:12;100274.75;;;11.83;89.87
18819;BME280;9537;45.594;9.294;2022-10-31T04:54:13;100271.13;;;11.84;89.75
18819;BME280;9537;45.594;9.294;2022-10-31T04:55:15;100273.63;;;11.85;89.31
18819;BME280;9537;45.594;9.294;2022-10-31T04:56:16;100270.13;;;11.85;89.68
18819;BME280;9537;45.594;9.294;2022-10-31T04:57:18;100264.84;;;11.85;89.70
18819;BME280;9537;45.594;9.294;2022-10-31T04:58:19;100271.63;;;11.87;89.64
18819;BME280;9537;45.594;9.294;2022-10-31T04:59:21;100268.16;;;11.87;89.63
18819;BME280;9537;45.594;9.294;2022-10-31T05:00:23;100263.06;;;11.85;89.82
18819;BME280;9537;45.594;9.294;2022-10-31T05:01:26;100271.81;;;11.86;90.08
18819;BME280;9537;45.594;9.294;2022-10-31T05:02:28;100264.19;;;11.83;90.27
18819;BME280;9537;45.594;9.294;2022-10-31T05:03:30;100266.63;;;11.84;90.09
18819;BME280;9537;45.594;9.294;2022-10-31T05:04:31;100266.81;;;11.83;90.20
18819;BME280;9537;45.594;9.294;2022-10-31T05:05:35;100267.50;;;11.85;90.27
18819;BME280;9537;45.594;9.294;2022-10-31T05:06:36;100265.69;;;11.85;90.04
18819;BME280;9537;45.594;9.294;2022-10-31T05:07:39;100267.34;;;11.86;89.79
18819;BME280;9537;45.594;9.294;2022-10-31T05:08:41;100267.50;;;11.85;90.05
18819;BME280;9537;45.594;9.294;2022-10-31T05:09:43;100268.34;;;11.85;90.16
18819;BME280;9537;45.594;9.294;2022-10-31T05:10:44;100264.84;;;11.85;89.89
18819;BME280;9537;45.594;9.294;2022-10-31T05:11:46;100270.00;;;11.86;90.05
18819;BME280;9537;45.594;9.294;2022-10-31T05:12:47;100268.16;;;11.87;89.89
18819;BME280;9537;45.594;9.294;2022-10-31T05:13:50;100266.53;;;11.86;90.09
18819;BME280;9537;45.594;9.294;2022-10-31T05:14:51;100276.09;;;11.87;89.94
18819;BME280;9537;45.594;9.294;2022-10-31T05:15:53;100273.63;;;11.85;90.08
18819;BME280;9537;45.594;9.294;2022-10-31T05:16:54;100266.53;;;11.86;90.19
18819;BME280;9537;45.594;9.294;2022-10-31T05:17:56;100269.28;;;11.84;90.28
18819;BME280;9537;45.594;9.294;2022-10-31T05:18:57;100264.69;;;11.86;90.01
18819;BME280;9537;45.594;9.294;2022-10-31T05:19:59;100267.34;;;11.86;90.14
18819;BME280;9537;45.594;9.294;2022-10-31T05:21:02;100267.34;;;11.86;90.20
18819;BME280;9537;45.594;9.294;2022-10-31T05:22:04;100271.94;;;11.84;90.07
18819;BME280;9537;45.594;9.294;2022-10-31T05:23:05;100265.81;;;11.84;90.22
18819;BME280;9537;45.594;9.294;2022-10-31T05:24:07;100267.97;;;11.80;90.31
18819;BME280;9537;45.594;9.294;2022-10-31T05:25:08;100271.28;;;11.82;90.31
18819;BME280;9537;45.594;9.294;2022-10-31T05:26:10;100274.09;;;11.81;90.42
18819;BME280;9537;45.594;9.294;2022-10-31T05:27:11;100271.44;;;11.81;90.28
18819;BME280;9537;45.594;9.294;2022-10-31T05:28:13;100271.28;;;11.82;90.25
18819;BME280;9537;45.594;9.294;2022-10-31T05:29:14;100274.09;;;11.81;90.38
18819;BME280;9537;45.594;9.294;2022-10-31T05:30:18;100274.09;;;11.81;90.26
18819;BME280;9537;45.594;9.294;2022-10-31T05:31:19;100266.81;;;11.83;90.16
18819;BME280;9537;45.594;9.294;2022-10-31T05:32:21;100274.75;;;11.83;90.21
18819;BME280;9537;45.594;9.294;2022-10-31T05:33:22;100272.78;;;11.85;90.20
18819;BME280;9537;45.594;9.294;2022-10-31T05:34:24;100272.78;;;11.85;89.87
18819;BME280;9537;45.594;9.294;2022-10-31T05:35:26;100274.47;;;11.86;89.77
18819;BME280;9537;45.594;9.294;2022-10-31T05:36:31;100279.56;;;11.87;89.81
18819;BME280;9537;45.594;9.294;2022-10-31T05:37:39;100273.47;;;11.87;89.96
18819;BME280;9537;45.594;9.294;2022-10-31T05:38:42;100277.13;;;11.86;89.55
18819;BME280;9537;45.594;9.294;2022-10-31T05:39:43;100271.28;;;11.82;90.27
18819;BME280;9537;45.594;9.294;2022-10-31T05:40:46;100273.13;;;11.82;89.21
18819;BME280;9537;45.594;9.294;2022-10-31T05:41:47;100270.63;;;11.80;88.95